createdAt,value
2018-11-29T00:00:50.176Z,747.088
2018-11-29T00:02:50.176Z,747.088
2018-11-29T00:04:50.605Z,747.088
2018-11-29T00:06:49.862Z,747.088
2018-11-29T00:08:50.103Z,747.088
2018-11-29T00:10:50.119Z,747.088
2018-11-29T00:12:50.141Z,747.088
2018-11-29T00:14:50.132Z,747.088
2018-11-29T00:16:50.425Z,747.088
2018-11-29T00:18:50.415Z,747.088
2018-11-29T00:20:50.437Z,747.088
2018-11-29T00:22:50.434Z,747.088
2018-11-29T00:24:50.467Z,747.088
2018-11-29T00:26:49.834Z,747.088
2018-11-29T00:28:49.966Z,747.088
2018-11-29T00:30:49.940Z,747.088
2018-11-29T00:32:50.098Z,747.088
2018-11-29T00:34:50.446Z,747.088
2018-11-29T00:36:50.655Z,747.088
2018-11-29T00:38:50.770Z,747.088
2018-11-29T00:40:49.865Z,747.088
2018-11-29T00:42:50.047Z,747.088
2018-11-29T00:44:50.083Z,747.088
2018-11-29T00:46:50.336Z,747.088
2018-11-29T00:48:50.391Z,747.088
2018-11-29T00:50:50.336Z,747.088
2018-11-29T00:52:50.319Z,747.088
2018-11-29T00:54:50.349Z,747.088
2018-11-29T00:56:50.542Z,747.088
2018-11-29T00:58:50.491Z,747.088
2018-11-29T01:00:50.513Z,747.088
2018-11-29T01:02:50.699Z,747.088
2018-11-29T01:04:50.041Z,747.088
2018-11-29T01:06:50.254Z,747.088
2018-11-29T01:08:50.277Z,747.088
2018-11-29T01:10:50.341Z,747.088
2018-11-29T01:12:50.352Z,747.088
2018-11-29T01:14:50.409Z,747.088
2018-11-29T01:16:50.634Z,747.088
2018-11-29T01:18:49.821Z,747.088
2018-11-29T01:20:49.892Z,747.088
2018-11-29T01:22:50.099Z,747.088
2018-11-29T01:24:50.117Z,747.088
2018-11-29T01:26:50.280Z,747.088
2018-11-29T01:28:50.321Z,747.088
2018-11-29T01:30:50.470Z,747.088
2018-11-29T01:32:50.534Z,747.088
2018-11-29T01:34:50.190Z,747.088
2018-11-29T01:36:50.305Z,747.088
2018-11-29T01:38:50.289Z,747.088
2018-11-29T01:40:50.307Z,747.088
2018-11-29T01:42:50.369Z,747.088
2018-11-29T01:44:50.412Z,747.088
2018-11-29T01:46:50.677Z,747.088
2018-11-29T01:48:50.627Z,747.088
2018-11-29T01:50:50.764Z,747.088
2018-11-29T01:52:49.873Z,747.088
2018-11-29T01:54:49.897Z,747.088
2018-11-29T01:56:50.362Z,747.088
2018-11-29T01:58:50.366Z,747.088
2018-11-29T02:00:50.325Z,747.088
2018-11-29T02:02:50.330Z,747.088
2018-11-29T02:04:50.503Z,747.088
2018-11-29T02:06:49.817Z,747.088
2018-11-29T02:08:49.818Z,747.088
2018-11-29T02:10:49.918Z,747.088
2018-11-29T02:12:50.106Z,747.088
2018-11-29T02:14:50.294Z,747.088
2018-11-29T02:16:50.593Z,747.088
2018-11-29T02:18:50.653Z,747.088
2018-11-29T02:20:49.828Z,747.088
2018-11-29T02:22:50.087Z,747.088
2018-11-29T02:24:50.185Z,747.088
2018-11-29T02:26:50.559Z,747.088
2018-11-29T02:28:50.677Z,747.088
2018-11-29T02:30:50.725Z,747.088
2018-11-29T02:32:49.872Z,747.088
2018-11-29T02:34:50.312Z,747.088
2018-11-29T02:36:50.673Z,747.088
2018-11-29T02:38:50.686Z,747.088
2018-11-29T02:40:50.826Z,747.088
2018-11-29T02:42:49.856Z,747.088
2018-11-29T02:44:49.988Z,747.088
2018-11-29T02:46:50.372Z,747.088
2018-11-29T02:48:50.557Z,747.088
2018-11-29T02:50:50.626Z,747.088
2018-11-29T02:52:50.651Z,747.088
2018-11-29T02:54:50.597Z,747.088
2018-11-29T02:56:49.913Z,747.088
2018-11-29T02:58:49.959Z,747.088
2018-11-29T03:00:50.126Z,747.088
2018-11-29T03:02:50.119Z,747.088
2018-11-29T03:04:50.614Z,747.088
2018-11-29T03:06:50.013Z,747.088
2018-11-29T03:08:50.805Z,747.088
2018-11-29T03:10:49.878Z,747.088
2018-11-29T03:12:49.921Z,747.088
2018-11-29T03:14:49.933Z,747.088
2018-11-29T03:16:50.241Z,747.088
2018-11-29T03:18:50.218Z,747.088
2018-11-29T03:20:50.240Z,747.088
2018-11-29T03:22:50.238Z,747.088
2018-11-29T03:24:50.281Z,747.088
2018-11-29T03:26:50.564Z,747.088
2018-11-29T03:28:50.684Z,747.088
2018-11-29T03:30:50.710Z,747.088
2018-11-29T03:32:50.860Z,747.088
2018-11-29T03:34:50.313Z,747.088
2018-11-29T03:36:50.595Z,747.088
2018-11-29T03:38:50.562Z,747.088
2018-11-29T03:40:50.556Z,747.088
2018-11-29T03:42:50.591Z,747.088
2018-11-29T03:44:49.816Z,747.088
2018-11-29T03:46:50.052Z,747.088
2018-11-29T03:48:50.061Z,747.088
2018-11-29T03:50:50.080Z,747.088
2018-11-29T03:52:50.093Z,747.088
2018-11-29T03:54:50.043Z,747.088
2018-11-29T03:56:50.243Z,747.088
2018-11-29T03:58:50.234Z,747.088
2018-11-29T04:00:50.248Z,747.088
2018-11-29T04:02:50.467Z,747.088
2018-11-29T04:04:50.765Z,747.088
2018-11-29T04:06:50.022Z,747.088
2018-11-29T04:08:50.030Z,747.088
2018-11-29T04:10:50.127Z,747.088
2018-11-29T04:12:50.116Z,747.088
2018-11-29T04:14:50.154Z,747.088
2018-11-29T04:16:50.378Z,747.088
2018-11-29T04:18:50.350Z,747.088
2018-11-29T04:20:50.447Z,747.088
2018-11-29T04:22:50.514Z,747.088
2018-11-29T04:24:50.555Z,747.088
2018-11-29T04:26:49.766Z,747.088
2018-11-29T04:28:49.806Z,747.088
2018-11-29T04:30:49.844Z,747.088
2018-11-29T04:32:49.948Z,747.088
2018-11-29T04:34:50.259Z,747.088
2018-11-29T04:36:50.402Z,747.088
2018-11-29T04:38:50.516Z,747.088
2018-11-29T04:40:50.609Z,747.088
2018-11-29T04:42:50.607Z,747.088
2018-11-29T04:44:50.567Z,747.088
2018-11-29T04:46:49.841Z,747.088
2018-11-29T04:48:49.910Z,747.088
2018-11-29T04:50:50.238Z,747.088
2018-11-29T04:52:50.294Z,747.088
2018-11-29T04:54:50.239Z,747.088
2018-11-29T04:56:50.709Z,747.088
2018-11-29T04:58:49.815Z,747.088
2018-11-29T05:00:49.790Z,747.088
2018-11-29T05:02:49.807Z,747.088
2018-11-29T05:04:50.434Z,747.088
2018-11-29T05:06:50.610Z,747.088
2018-11-29T05:08:50.624Z,747.088
2018-11-29T05:10:50.596Z,747.088
2018-11-29T05:12:50.694Z,747.088
2018-11-29T05:14:50.692Z,747.088
2018-11-29T05:16:50.011Z,747.088
2018-11-29T05:18:50.042Z,747.088
2018-11-29T05:20:50.005Z,747.088
2018-11-29T05:22:50.101Z,747.088
2018-11-29T05:24:50.113Z,747.088
2018-11-29T05:26:50.070Z,747.088
2018-11-29T05:28:50.063Z,747.088
2018-11-29T05:30:50.057Z,747.088
2018-11-29T05:32:50.049Z,747.088
2018-11-29T05:34:50.378Z,747.088
2018-11-29T05:36:50.666Z,747.088
2018-11-29T05:38:50.766Z,747.088
2018-11-29T05:40:49.867Z,747.088
2018-11-29T05:42:49.955Z,747.088
2018-11-29T05:44:50.048Z,747.088
2018-11-29T05:46:50.356Z,747.088
2018-11-29T05:48:50.390Z,747.088
2018-11-29T05:50:50.462Z,747.088
2018-11-29T05:52:50.575Z,747.088
2018-11-29T05:54:50.601Z,747.088
2018-11-29T05:56:50.111Z,747.088
2018-11-29T05:58:50.161Z,747.088
2018-11-29T06:00:50.250Z,747.088
2018-11-29T06:02:50.301Z,747.088
2018-11-29T06:04:50.671Z,747.088
2018-11-29T06:06:49.927Z,747.088
2018-11-29T06:08:50.119Z,747.088
2018-11-29T06:10:50.192Z,747.088
2018-11-29T06:12:50.169Z,747.088
2018-11-29T06:14:50.247Z,747.088
2018-11-29T06:16:50.413Z,747.088
2018-11-29T06:18:50.440Z,747.088
2018-11-29T06:20:50.782Z,747.088
2018-11-29T06:22:49.782Z,747.088
2018-11-29T06:24:49.808Z,747.088
2018-11-29T06:26:50.077Z,747.088
2018-11-29T06:28:50.071Z,747.088
2018-11-29T06:30:50.071Z,747.088
2018-11-29T06:32:50.104Z,747.088
2018-11-29T06:34:50.520Z,747.088
2018-11-29T06:36:50.346Z,747.088
2018-11-29T06:38:50.346Z,747.088
2018-11-29T06:40:50.374Z,747.088
2018-11-29T06:42:50.657Z,747.088
2018-11-29T06:44:49.857Z,747.088
2018-11-29T06:46:50.128Z,747.088
2018-11-29T06:48:50.181Z,747.088
2018-11-29T06:50:50.245Z,747.088
2018-11-29T06:52:50.402Z,747.088
2018-11-29T06:54:50.421Z,747.088
2018-11-29T06:56:50.676Z,747.088
2018-11-29T06:58:49.818Z,747.088
2018-11-29T07:00:49.911Z,747.088
2018-11-29T07:02:49.998Z,747.088
2018-11-29T07:04:50.357Z,747.088
2018-11-29T07:06:50.633Z,747.088
2018-11-29T07:08:50.654Z,747.088
2018-11-29T07:10:50.670Z,747.088
2018-11-29T07:12:50.622Z,747.088
2018-11-29T07:14:50.658Z,747.088
2018-11-29T07:16:49.901Z,747.088
2018-11-29T11:04:50.660Z,0.502
2018-11-29T11:06:50.027Z,0.177
2018-11-29T11:08:50.255Z,0.160
2018-11-29T11:10:50.558Z,0.171
2018-11-29T11:12:49.793Z,0.205
2018-11-29T11:14:50.038Z,0.154
2018-11-29T11:16:50.400Z,0.131
2018-11-29T11:18:50.547Z,0.165
2018-11-29T11:20:50.589Z,0.200
2018-11-29T11:22:49.900Z,0.222
2018-11-29T11:24:50.032Z,0.188
2018-11-29T11:26:50.455Z,0.171
2018-11-29T11:28:50.659Z,0.160
2018-11-29T11:30:49.888Z,0.177
2018-11-29T11:32:50.041Z,0.177
2018-11-29T11:34:50.483Z,0.143
2018-11-29T11:36:49.866Z,0.160
2018-11-29T11:38:50.300Z,0.160
2018-11-29T11:40:50.597Z,0.154
2018-11-29T11:42:49.993Z,0.108
2018-11-29T11:44:50.212Z,0.160
2018-11-29T11:46:50.607Z,0.125
2018-11-29T11:48:50.674Z,0.194
2018-11-29T11:50:49.849Z,0.217
2018-11-29T11:52:50.120Z,0.205
2018-11-29T11:54:50.365Z,0.160
2018-11-29T11:56:50.737Z,0.143
2018-11-29T11:58:50.036Z,0.137
2018-11-29T12:00:50.209Z,0.125
2018-11-29T12:02:50.675Z,0.165
2018-11-29T12:04:50.257Z,0.194
2018-11-29T12:06:50.574Z,0.171
2018-11-29T12:08:49.759Z,0.200
2018-11-29T12:10:49.942Z,0.182
2018-11-29T12:12:50.030Z,0.211
2018-11-29T12:14:50.149Z,0.211
2018-11-29T12:16:50.694Z,0.194
2018-11-29T12:18:49.920Z,0.217
2018-11-29T12:20:50.053Z,0.131
2018-11-29T12:22:50.135Z,0.188
2018-11-29T12:24:50.383Z,0.160
2018-11-29T12:26:50.758Z,0.148
2018-11-29T12:28:49.941Z,0.171
2018-11-29T12:30:50.083Z,0.205
2018-11-29T12:32:50.266Z,0.222
2018-11-29T12:34:49.921Z,0.228
2018-11-29T12:36:50.381Z,0.228
2018-11-29T12:38:50.647Z,0.160
2018-11-29T12:40:49.868Z,0.148
2018-11-29T12:42:50.015Z,0.171
2018-11-29T12:44:50.142Z,0.143
2018-11-29T12:46:50.413Z,0.171
2018-11-29T12:48:50.514Z,0.148
2018-11-29T12:50:50.652Z,0.165
2018-11-29T12:52:49.968Z,0.165
2018-11-29T12:54:50.123Z,0.194
2018-11-29T12:56:50.420Z,0.182
2018-11-29T12:58:50.523Z,0.182
2018-11-29T13:00:49.794Z,0.205
2018-11-29T13:02:50.262Z,0.182
2018-11-29T13:04:49.825Z,0.222
2018-11-29T13:06:50.126Z,0.114
2018-11-29T13:08:50.229Z,0.148
2018-11-29T13:10:50.393Z,0.160
2018-11-29T13:12:50.520Z,0.200
2018-11-29T13:14:50.721Z,0.148
2018-11-29T13:16:50.215Z,0.200
2018-11-29T13:18:50.488Z,0.114
2018-11-29T13:20:49.780Z,0.154
2018-11-29T13:22:50.036Z,0.171
2018-11-29T13:24:50.164Z,0.217
2018-11-29T13:26:50.487Z,0.234
2018-11-29T13:28:50.609Z,0.171
2018-11-29T13:30:50.270Z,0.165
2018-11-29T13:32:50.769Z,0.194
2018-11-29T13:34:50.511Z,0.194
2018-11-29T13:36:49.919Z,0.177
2018-11-29T13:38:50.048Z,0.103
2018-11-29T13:40:51.498Z,0.148
2018-11-29T13:42:50.814Z,0.143
2018-11-29T13:44:50.431Z,0.154
2018-11-29T13:46:50.124Z,0.182
2018-11-29T13:48:50.271Z,0.205
2018-11-29T13:50:50.452Z,0.188
2018-11-29T13:52:50.659Z,0.165
2018-11-29T13:54:49.881Z,0.160
2018-11-29T13:56:50.296Z,0.125
2018-11-29T13:58:50.467Z,0.148
2018-11-29T14:00:50.605Z,0.182
2018-11-29T14:02:49.900Z,0.200
2018-11-29T14:04:50.065Z,0.165
2018-11-29T14:06:50.672Z,0.165
2018-11-29T14:08:49.856Z,0.143
2018-11-29T14:10:50.319Z,0.160
2018-11-29T14:12:52.080Z,0.194
2018-11-29T14:14:50.365Z,0.171
2018-11-29T14:16:49.791Z,0.154
2018-11-29T14:18:50.037Z,0.137
2018-11-29T14:20:50.189Z,0.125
2018-11-29T14:22:50.313Z,0.143
2018-11-29T14:24:50.831Z,0.143
2018-11-29T14:26:50.333Z,0.194
2018-11-29T14:28:50.641Z,0.194
2018-11-29T14:30:49.830Z,0.148
2018-11-29T14:32:49.935Z,0.148
2018-11-29T14:34:52.388Z,0.234
2018-11-29T14:36:50.757Z,0.205
2018-11-29T14:38:49.964Z,0.205
2018-11-29T14:40:50.211Z,0.160
2018-11-29T14:42:50.422Z,0.143
2018-11-29T14:44:50.623Z,0.257
2018-11-29T14:46:50.032Z,0.154
2018-11-29T14:48:50.232Z,0.143
2018-11-29T14:50:50.311Z,0.154
2018-11-29T14:52:50.412Z,0.125
2018-11-29T14:54:50.560Z,0.177
2018-11-29T14:56:50.172Z,0.148
2018-11-29T14:58:50.435Z,0.165
2018-11-29T15:00:50.553Z,0.205
2018-11-29T15:02:50.610Z,0.148
2018-11-29T15:04:50.231Z,0.160
2018-11-29T15:06:50.572Z,0.165
2018-11-29T15:08:50.111Z,0.137
2018-11-29T15:10:50.237Z,0.160
2018-11-29T15:12:50.423Z,0.148
2018-11-29T15:14:50.507Z,0.200
2018-11-29T15:16:49.889Z,0.200
2018-11-29T15:18:50.037Z,0.182
2018-11-29T15:20:50.264Z,0.177
2018-11-29T15:22:50.357Z,0.239
2018-11-29T15:24:50.563Z,0.171
2018-11-29T15:26:49.938Z,0.211
2018-11-29T15:28:50.015Z,0.188
2018-11-29T15:30:50.161Z,0.154
2018-11-29T15:32:50.374Z,0.182
2018-11-29T15:34:49.788Z,0.131
2018-11-29T15:36:50.342Z,0.165
2018-11-29T15:38:50.444Z,0.217
2018-11-29T15:40:50.731Z,0.205
2018-11-29T15:42:49.849Z,0.177
2018-11-29T15:44:49.979Z,0.154
2018-11-29T15:46:50.320Z,0.177
2018-11-29T15:48:50.396Z,0.148
2018-11-29T15:50:50.498Z,0.222
2018-11-29T15:52:50.749Z,0.200
2018-11-29T15:54:49.977Z,0.200
2018-11-29T15:56:50.306Z,0.165
2018-11-29T15:58:50.480Z,0.171
2018-11-29T16:00:50.567Z,0.228
2018-11-29T16:02:49.826Z,0.171
2018-11-29T16:04:50.288Z,0.194
2018-11-29T16:06:50.578Z,0.120
2018-11-29T16:08:49.784Z,0.148
2018-11-29T16:10:49.994Z,15.538
2018-11-29T16:12:50.075Z,319.103
2018-11-29T16:14:50.263Z,0.143
2018-11-29T16:16:50.694Z,0.234
2018-11-29T16:18:49.841Z,0.160
2018-11-29T16:20:50.139Z,0.217
2018-11-29T16:22:50.353Z,0.171
2018-11-29T16:24:50.679Z,0.268
2018-11-29T16:26:50.054Z,0.091
2018-11-29T16:28:50.179Z,0.148
2018-11-29T16:30:50.289Z,0.131
2018-11-29T16:32:50.479Z,0.165
2018-11-29T16:34:50.012Z,0.194
2018-11-29T16:36:50.340Z,0.228
2018-11-29T16:38:50.509Z,0.194
2018-11-29T16:40:50.621Z,0.222
2018-11-29T16:42:49.813Z,0.171
2018-11-29T16:44:50.075Z,0.188
2018-11-29T16:46:50.606Z,0.120
2018-11-29T16:48:50.375Z,0.177
2018-11-29T16:50:50.544Z,0.165
2018-11-29T16:52:50.676Z,0.200
2018-11-29T16:54:49.804Z,0.200
2018-11-29T16:56:50.230Z,0.160
2018-11-29T16:58:50.373Z,0.160
2018-11-29T17:00:50.542Z,0.171
2018-11-29T17:02:50.634Z,0.114
2018-11-29T17:04:50.252Z,0.257
2018-11-29T17:06:50.601Z,0.182
2018-11-29T17:08:49.784Z,0.205
2018-11-29T17:10:49.994Z,0.177
2018-11-29T17:12:50.165Z,0.194
2018-11-29T17:14:50.294Z,0.211
2018-11-29T17:16:50.610Z,0.188
2018-11-29T17:18:49.806Z,0.165
2018-11-29T17:20:49.970Z,0.154
2018-11-29T17:22:50.261Z,0.188
2018-11-29T17:24:50.439Z,109.913
2018-11-29T17:26:49.803Z,0.171
2018-11-29T17:28:50.009Z,164.063
2018-11-29T17:30:50.166Z,164.063
2018-11-29T17:32:50.306Z,747.088
2018-11-29T17:34:50.670Z,281.574
2018-11-29T17:36:50.040Z,0.228
2018-11-29T17:38:50.215Z,0.268
2018-11-29T17:40:50.456Z,0.148
2018-11-29T17:42:50.611Z,0.171
2018-11-29T17:44:50.712Z,0.217
2018-11-29T17:46:50.156Z,36.645
2018-11-29T17:48:50.269Z,0.239
2018-11-29T17:50:50.499Z,0.143
2018-11-29T17:52:50.635Z,0.160
2018-11-29T17:54:49.783Z,0.125
2018-11-29T17:56:50.083Z,0.217
2018-11-29T17:58:50.218Z,0.188
2018-11-29T18:00:50.358Z,0.222
2018-11-29T18:02:50.531Z,747.088
2018-11-29T18:04:50.290Z,13.070
2018-11-29T18:06:50.669Z,0.251
2018-11-29T18:08:49.796Z,0.154
2018-11-29T18:10:49.951Z,0.165
2018-11-29T18:12:50.123Z,0.165
2018-11-29T18:14:50.241Z,0.194
2018-11-29T18:16:50.615Z,0.194
2018-11-29T18:18:49.798Z,0.205
2018-11-29T18:20:50.055Z,0.120
2018-11-29T18:22:50.238Z,0.239
2018-11-29T18:24:50.439Z,0.177
2018-11-29T18:26:49.890Z,0.257
2018-11-29T18:28:50.104Z,0.154
2018-11-29T18:30:50.201Z,0.188
2018-11-29T18:32:50.458Z,0.188
2018-11-29T18:34:50.084Z,0.194
2018-11-29T18:36:50.468Z,0.239
2018-11-29T18:38:50.591Z,0.222
2018-11-29T18:40:49.818Z,24.100
2018-11-29T18:42:50.095Z,0.200
2018-11-29T18:44:50.295Z,0.160
2018-11-29T18:46:50.729Z,0.160
2018-11-29T18:48:49.805Z,0.165
2018-11-29T18:50:49.954Z,0.165
2018-11-29T18:52:50.103Z,0.177
2018-11-29T18:54:50.229Z,136.441
2018-11-29T18:56:50.604Z,0.211
2018-11-29T18:58:50.736Z,0.211
2018-11-29T19:00:49.933Z,0.160
2018-11-29T19:02:50.161Z,0.222
2018-11-29T19:04:50.629Z,0.228
2018-11-29T19:06:50.048Z,0.217
2018-11-29T19:08:50.231Z,90.294
2018-11-29T19:10:50.403Z,418.192
2018-11-29T19:12:50.575Z,655.745
2018-11-29T19:14:49.790Z,747.088
2018-11-29T19:16:50.248Z,747.088
2018-11-29T19:18:50.417Z,747.088
2018-11-29T19:20:50.546Z,747.088
2018-11-29T19:22:50.733Z,747.088
2018-11-29T19:24:49.918Z,747.088
2018-11-29T19:26:50.457Z,747.088
2018-11-29T19:28:50.561Z,747.088
2018-11-29T19:30:49.816Z,747.088
2018-11-29T19:32:49.986Z,747.088
2018-11-29T19:34:50.448Z,747.088
2018-11-29T19:36:49.839Z,620.462
2018-11-29T19:38:50.002Z,747.088
2018-11-29T19:40:50.156Z,72.635
2018-11-29T19:42:50.366Z,0.211
2018-11-29T19:44:51.123Z,11.343
2018-11-29T19:46:49.784Z,747.088
2018-11-29T19:48:50.042Z,747.088
2018-11-29T19:50:50.165Z,195.424
2018-11-29T19:52:50.339Z,452.962
2018-11-29T19:54:50.546Z,747.088
2018-11-29T19:56:49.906Z,747.088
2018-11-29T19:58:50.082Z,0.370
2018-11-29T20:00:50.478Z,0.177
2018-11-29T20:02:50.737Z,87.786
2018-11-29T20:04:50.393Z,162.627
2018-11-29T20:06:50.636Z,0.234
2018-11-29T20:08:49.795Z,0.177
2018-11-29T20:10:49.989Z,0.274
2018-11-29T20:12:50.086Z,747.088
2018-11-29T20:14:50.251Z,490.650
2018-11-29T20:16:50.707Z,0.274
2018-11-29T20:18:49.893Z,0.228
2018-11-29T20:20:50.077Z,0.325
2018-11-29T20:22:50.303Z,0.296
2018-11-29T20:24:50.456Z,0.251
2018-11-29T20:26:49.826Z,0.194
2018-11-29T20:28:49.984Z,0.291
2018-11-29T20:30:50.139Z,0.279
2018-11-29T20:32:50.405Z,0.353
2018-11-29T20:34:49.993Z,115.129
2018-11-29T20:36:50.310Z,254.819
2018-11-29T20:38:50.434Z,162.935
2018-11-29T20:40:50.596Z,0.348
2018-11-29T20:42:49.855Z,2.257
2018-11-29T20:44:49.924Z,369.748
2018-11-29T20:46:50.231Z,172.915
2018-11-29T20:48:50.349Z,61.708
2018-11-29T20:50:50.521Z,0.587
2018-11-29T20:52:50.650Z,0.604
2018-11-29T20:54:50.753Z,0.604
2018-11-29T20:56:50.060Z,488.724
2018-11-29T20:58:50.259Z,322.181
2018-11-29T21:00:50.485Z,627.251
2018-11-29T21:02:50.648Z,0.547
2018-11-29T21:04:50.108Z,101.090
2018-11-29T21:06:50.643Z,468.557
2018-11-29T21:08:49.825Z,747.088
2018-11-29T21:10:50.129Z,401.662
2018-11-29T21:12:50.422Z,0.576
2018-11-29T21:14:50.576Z,733.710
2018-11-29T21:16:49.977Z,628.368
2018-11-29T21:18:50.157Z,118.537
2018-11-29T21:20:50.267Z,456.764
2018-11-29T21:22:50.409Z,747.088
2018-11-29T21:24:50.508Z,747.088
2018-11-29T21:26:49.888Z,747.088
2018-11-29T21:28:50.016Z,747.088
2018-11-29T21:30:50.150Z,464.556
2018-11-29T21:32:50.335Z,517.378
2018-11-29T21:34:49.936Z,747.088
2018-11-29T21:36:50.289Z,747.088
2018-11-29T21:38:50.429Z,306.375
2018-11-29T21:40:50.667Z,306.375
2018-11-29T21:42:49.860Z,747.088
2018-11-29T21:44:49.987Z,747.088
2018-11-29T21:46:50.297Z,747.088
2018-11-29T21:48:50.434Z,747.088
2018-11-29T21:50:50.583Z,747.088
2018-11-29T21:52:49.807Z,747.088
2018-11-29T21:54:50.033Z,747.088
2018-11-29T21:56:50.389Z,747.088
2018-11-29T21:58:50.502Z,747.088
2018-11-29T22:00:50.632Z,747.088
2018-11-29T22:02:49.802Z,747.088
2018-11-29T22:04:50.389Z,747.088
2018-11-29T22:06:49.800Z,747.088
2018-11-29T22:08:50.041Z,747.088
2018-11-29T22:10:50.251Z,747.088
2018-11-29T22:12:50.465Z,747.088
2018-11-29T22:14:50.558Z,747.088
2018-11-29T22:16:49.988Z,747.088
2018-11-29T22:18:50.136Z,747.088
2018-11-29T22:20:50.588Z,747.088
2018-11-29T22:22:49.882Z,747.088
2018-11-29T22:24:49.998Z,747.088
2018-11-29T22:26:50.290Z,747.088
2018-11-29T22:28:50.454Z,747.088
2018-11-29T22:30:50.570Z,747.088
2018-11-29T22:32:49.802Z,747.088
2018-11-29T22:34:50.471Z,747.088
2018-11-29T22:36:49.801Z,747.088
2018-11-29T22:38:49.943Z,747.088
2018-11-29T22:40:49.941Z,747.088
2018-11-29T22:42:49.989Z,747.088
2018-11-29T22:44:50.173Z,747.088
2018-11-29T22:46:50.582Z,747.088
2018-11-29T22:48:49.841Z,747.088
2018-11-29T22:50:50.083Z,747.088
2018-11-29T22:52:50.257Z,747.088
2018-11-29T22:54:50.435Z,747.088
2018-11-29T22:56:49.880Z,747.088
2018-11-29T22:58:50.069Z,747.088
2018-11-29T23:00:50.291Z,747.088
2018-11-29T23:02:49.833Z,747.088
2018-11-29T23:04:50.371Z,747.088
2018-11-29T23:06:50.735Z,747.088
2018-11-29T23:08:49.836Z,747.088
2018-11-29T23:10:49.932Z,747.088
2018-11-29T23:12:50.118Z,747.088
2018-11-29T23:14:50.226Z,747.088
2018-11-29T23:16:50.539Z,747.088
2018-11-29T23:18:50.661Z,747.088
2018-11-29T23:20:49.901Z,747.088
2018-11-29T23:22:50.077Z,747.088
2018-11-29T23:24:50.242Z,747.088
2018-11-29T23:26:50.519Z,747.088
2018-11-29T23:28:50.745Z,747.088
2018-11-29T23:30:49.859Z,747.088
2018-11-29T23:32:50.049Z,747.088
2018-11-29T23:34:50.581Z,747.088
2018-11-29T23:36:49.965Z,747.088
2018-11-29T23:38:50.147Z,747.088
2018-11-29T23:40:50.360Z,747.088
2018-11-29T23:42:50.531Z,747.088
2018-11-29T23:44:50.705Z,747.088
2018-11-29T23:46:50.052Z,747.088
2018-11-29T23:48:50.224Z,747.088
2018-11-29T23:50:50.443Z,747.088
2018-11-29T23:52:50.629Z,747.088
2018-11-29T23:54:49.832Z,747.088
2018-11-29T23:56:50.221Z,747.088
2018-11-29T23:58:50.355Z,747.088
